logo
Search for airport 
image banner adimage banner adimage banner ad
image banner ad

OIGI - Tunb Island Airbase

Located in , Iran, Islamic Republic of

ICAO - , IATA -

Data provided by Airmate  

General information

Coordinates: N26°15'30" E55°19'0"
Elevation is 43 feet MSL.
Magnetic variation is 2° East
View others Airports in Hormozgan Province

Operational data

Special qualification required
Current time UTC:
Current local time:
METAR: OIBA 191400Z 30010KT 6000 NSC 27/20 Q1007
View NOTAMs / SUP AIP / TFR affecting this airport [VIEW]
Communications frequencies: [VIEW]

Runways:

RWY identifierQFULength (ft)Width (ft)SurfaceLDA (ft)
0327°653997CONC
21207°653997CONC

Airport contact information

Address: Iran, Islamic Republic of

Satellite view of OIGI